Flight Track Log - Related Links

Times and Time Zones

All times are in EDT time to prevent confusion due to time zone crossing. See the N424AG flight status page for this flight to view local times or setup timezone preferences in your user account.

Time Position Orientation Groundspeed Altitude Reporting Facility
EDT Latitude Longitude Course Direction KTS MPH feet Rate Location/Type
Wed 04:58:11 PM 46.9169 -96.6875 104° East 100 115 3,600  Level Minneapolis Center
Wed 04:59:13 PM 46.9133 -96.6439 97° East 104 120 4,400 774 Climbing Minneapolis Center
Wed 05:00:15 PM 46.9100 -96.6011 96° East 108 124 5,200 756 Climbing Minneapolis Center
Wed 05:01:00 PM 46.8937 -96.4797 96° East  Level Estimated
Wed 05:01:20 PM 46.9058 -96.5497 97° East 113 130 6,000  Level Minneapolis Center
Wed 05:02:00 PM 46.8865 -96.4128 99° East  Level FlightAware Approximate
Wed 05:02:22 PM 46.9017 -96.5014 97° East 115 132 6,800  Level Minneapolis Center
Wed 05:03:00 PM 46.8810 -96.3457 104° East  Level Estimated
Wed 05:03:24 PM 46.8975 -96.4514 97° East 117 135 7,500  Level Minneapolis Center
Wed 05:04:26 PM 46.8936 -96.4042 97° East 122 140 8,100 629 Climbing Minneapolis Center
Wed 05:05:28 PM 46.8897 -96.3542 96° East 119 137 8,800 629 Climbing Minneapolis Center
Wed 05:06:30 PM 46.8853 -96.3022 97° East 123 142 9,400 581 Climbing Minneapolis Center
Wed 05:07:32 PM 46.8806 -96.2486 97° East 126 145 10,000 581 Climbing Minneapolis Center
Wed 05:08:34 PM 46.8764 -96.1936 96° East 130 150 10,600 484 Climbing Minneapolis Center
Wed 05:09:36 PM 46.8711 -96.1392 98° East 131 151 11,000 194 Climbing Minneapolis Center
Wed 05:10:38 PM 46.8667 -96.0761 96° East 151 174 11,000  Level Minneapolis Center
Wed 05:11:41 PM 46.8608 -96.0125 98° East 163 188 11,000  Level Minneapolis Center
Wed 05:12:43 PM 46.8539 -95.9428 98° East 166 191 11,000  Level Minneapolis Center
Wed 05:13:45 PM 46.8492 -95.8750 96° East 161 185 11,000  Level Minneapolis Center
Wed 05:14:47 PM 46.8431 -95.8061 97° East 163 188 11,000  Level Minneapolis Center
Wed 05:15:49 PM 46.8356 -95.7369 99° East 166 191 11,000  Level Minneapolis Center
Wed 05:16:51 PM 46.8308 -95.6669 96° East 168 193 11,000  Level Minneapolis Center
Wed 05:17:53 PM 46.8244 -95.5986 98° East 163 188 11,000  Level Minneapolis Center
Wed 05:18:55 PM 46.8183 -95.5350 98° East 162 186 11,000  Level Minneapolis Center
Wed 05:19:57 PM 46.8117 -95.4669 98° East 164 189 11,000  Level Minneapolis Center
Wed 05:20:59 PM 46.8064 -95.4072 97° East 160 184 11,000  Level Minneapolis Center
Wed 05:22:01 PM 46.8017 -95.3436 96° East 159 183 11,000  Level Minneapolis Center
Wed 05:23:03 PM 46.7939 -95.2656 98° East 161 185 11,000  Level Minneapolis Center
Wed 05:24:06 PM 46.7878 -95.2019 98° East 159 183 11,000  Level Minneapolis Center
Wed 05:25:08 PM 46.7811 -95.1381 99° East 160 184 11,000  Level Minneapolis Center
Wed 05:26:10 PM 46.7758 -95.0731 97° East 161 185 11,000  Level Minneapolis Center
Wed 05:27:12 PM 46.7694 -95.0075 98° East 163 188 11,000  Level Minneapolis Center
Wed 05:28:14 PM 46.7628 -94.9431 99° East 162 186 11,000  Level Minneapolis Center
Wed 05:29:16 PM 46.7558 -94.8653 97° East 161 185 11,000  Level Minneapolis Center
Wed 05:30:18 PM 46.7494 -94.8014 98° East 160 184 11,000  Level Minneapolis Center
Wed 05:31:20 PM 46.7436 -94.7358 97° East 163 188 11,000  Level Minneapolis Center
Wed 05:32:22 PM 46.7367 -94.6711 99° East 163 188 11,000  Level Minneapolis Center
Wed 05:33:24 PM 46.7303 -94.6061 98° East 163 188 11,000  Level Minneapolis Center
Wed 05:34:26 PM 46.7242 -94.5439 98° East 158 182 11,000  Level Minneapolis Center
Wed 05:35:28 PM 46.7167 -94.4717 99° East 153 176 11,000  Level Minneapolis Center
Wed 05:36:31 PM 46.7100 -94.4119 99° East 152 175 11,000  Level Minneapolis Center
Wed 05:37:33 PM 46.7050 -94.3522 97° East 149 171 11,000  Level Minneapolis Center
Wed 05:38:35 PM 46.6978 -94.2894 99° East 154 177 11,000  Level Minneapolis Center
Wed 05:39:37 PM 46.6925 -94.2297 97° East 154 177 11,000  Level Minneapolis Center
Wed 05:40:39 PM 46.6847 -94.1586 99° East 150 173 11,000  Level Minneapolis Center
Wed 05:41:41 PM 46.6781 -94.0969 99° East 153 176 11,000  Level Minneapolis Center
Wed 05:42:43 PM 46.6719 -94.0350 98° East 154 177 11,000  Level Minneapolis Center
Wed 05:43:45 PM 46.6653 -93.9739 99° East 153 176 11,000  Level Minneapolis Center
Wed 05:44:47 PM 46.6592 -93.9139 98° East 153 176 11,000  Level Minneapolis Center
Wed 05:45:49 PM 46.6522 -93.8531 99° East 153 176 11,000  Level Minneapolis Center
Wed 05:46:51 PM 46.6444 -93.7811 99° East 151 174 11,000  Level Minneapolis Center
Wed 05:47:53 PM 46.6383 -93.7183 98° East 154 177 11,000  Level Minneapolis Center
Wed 05:48:56 PM 46.6314 -93.6597 100° East 152 175 11,000  Level Minneapolis Center
Wed 05:49:58 PM 46.6256 -93.5997 98° East 151 174 11,000  Level Minneapolis Center
Wed 05:51:00 PM 46.6186 -93.5397 100° East 151 174 11,000  Level Minneapolis Center
Wed 05:52:02 PM 46.6108 -93.4661 99° East 153 176 11,000  Level Minneapolis Center
Wed 05:53:04 PM 46.6044 -93.4053 99° East 153 176 11,000 -48 Level Minneapolis Center
Wed 05:54:06 PM 46.5975 -93.3442 99° East 154 177 10,900 -48 Descending Minneapolis Center
Wed 05:55:08 PM 46.5906 -93.2817 99° East 156 180 10,900  Level Minneapolis Center
Wed 05:56:10 PM 46.5836 -93.2208 99° East 155 178 10,900  Level Minneapolis Center
Wed 05:57:12 PM 46.5769 -93.1597 99° East 154 177 10,900  Level Minneapolis Center
Wed 05:58:14 PM 46.5681 -93.0831 100° East 159 183 10,900  Level Minneapolis Center
Wed 05:59:16 PM 46.5614 -93.0217 99° East 157 181 10,900  Level Minneapolis Center
Wed 06:00:19 PM 46.5542 -92.9608 100° East 155 178 10,900  Level Minneapolis Center
Wed 06:01:21 PM 46.5475 -92.9006 99° East 153 176 10,900  Level Minneapolis Center
Wed 06:02:23 PM 46.5408 -92.8408 99° East 152 175 10,900  Level Minneapolis Center
Wed 06:03:25 PM 46.5319 -92.7675 100° East 153 176 10,900  Level Minneapolis Center
Wed 06:04:27 PM 46.5253 -92.7078 99° East 152 175 10,900  Level Minneapolis Center
Wed 06:05:29 PM 46.5178 -92.6469 100° East 152 175 10,900  Level Minneapolis Center
Wed 06:06:31 PM 46.5111 -92.5853 99° East 153 176 10,900  Level Minneapolis Center
Wed 06:07:33 PM 46.5033 -92.5228 100° East 156 180 10,900  Level Minneapolis Center
Wed 06:08:35 PM 46.4958 -92.4608 100° East 157 181 10,900  Level Minneapolis Center
Wed 06:09:37 PM 46.4872 -92.3861 99° East 157 181 10,900  Level Minneapolis Center
Wed 06:10:39 PM 46.4800 -92.3225 99° East 158 182 10,900  Level Minneapolis Center
Wed 06:11:42 PM 46.4722 -92.2603 100° East 159 183 10,900  Level Minneapolis Center
Wed 06:12:44 PM 46.4642 -92.1981 101° East 158 182 10,900  Level Minneapolis Center
Wed 06:13:46 PM 46.4564 -92.1342 100° East 159 183 10,900  Level Minneapolis Center
Wed 06:14:48 PM 46.4472 -92.0583 100° East 160 184 10,900  Level Minneapolis Center
Wed 06:15:50 PM 46.4397 -91.9972 100° East 156 180 10,900  Level Minneapolis Center
Wed 06:16:52 PM 46.4322 -91.9350 100° East 157 181 10,900  Level Minneapolis Center
Wed 06:17:54 PM 46.4244 -91.8739 100° East 157 181 10,900  Level Minneapolis Center
Wed 06:18:56 PM 46.4169 -91.8117 100° East 156 180 10,900  Level Minneapolis Center
Wed 06:19:58 PM 46.4094 -91.7528 100° East 152 175 10,900  Level Minneapolis Center
Wed 06:21:00 PM 46.4000 -91.6781 100° East 158 182 10,900  Level Minneapolis Center
Wed 06:22:03 PM 46.3925 -91.6158 100° East 159 183 10,900 48 Level Minneapolis Center
Wed 06:23:05 PM 46.3839 -91.5522 101° East 159 183 11,000 48 Climbing Minneapolis Center
Wed 06:24:07 PM 46.3778 -91.4925 98° East 152 175 11,000  Level Minneapolis Center
Wed 06:25:09 PM 46.3686 -91.4308 102° East 156 180 11,000  Level Minneapolis Center
Wed 06:26:11 PM 46.3606 -91.3686 101° East 158 182 11,000  Level Minneapolis Center
Wed 06:27:13 PM 46.3511 -91.2931 100° East 160 184 11,000  Level Minneapolis Center
Wed 06:28:15 PM 46.3433 -91.2314 100° East 156 180 11,000  Level Minneapolis Center
Wed 06:29:17 PM 46.3353 -91.1706 101° East 155 178 11,000  Level Minneapolis Center
Wed 06:30:19 PM 46.3275 -91.1083 100° East 157 181 11,000  Level Minneapolis Center
Wed 06:31:21 PM 46.3189 -91.0467 101° East 157 181 11,000  Level Minneapolis Center
Wed 06:32:23 PM 46.3114 -90.9878 100° East 151 174 11,000  Level Minneapolis Center
Wed 06:33:26 PM 46.3014 -90.9169 102° East 151 174 11,000  Level Minneapolis Center
Wed 06:34:28 PM 46.2933 -90.8581 101° East 150 173 11,000  Level Minneapolis Center
Wed 06:35:30 PM 46.2856 -90.7981 101° East 150 173 11,000  Level Minneapolis Center
Wed 06:36:32 PM 46.2767 -90.7406 103° East 148 170 11,000  Level Minneapolis Center
Wed 06:37:34 PM 46.2692 -90.6789 100° East 154 177 11,000  Level Minneapolis Center
Wed 06:38:36 PM 46.2600 -90.6194 103° East 154 177 11,000  Level Minneapolis Center
Wed 06:39:38 PM 46.2508 -90.5456 100° East 155 178 11,000  Level Minneapolis Center
Wed 06:40:40 PM 46.2431 -90.4869 101° East 150 173 11,000 48 Level Minneapolis Center
Wed 06:41:42 PM 46.2356 -90.4308 101° East 145 167 11,100 48 Climbing Minneapolis Center
Wed 06:42:44 PM 46.2275 -90.3750 102° East 143 165 11,100  Level Minneapolis Center
Wed 06:43:46 PM 46.2200 -90.3183 101° East 143 165 11,100  Level Minneapolis Center
Wed 06:44:49 PM 46.2122 -90.2617 101° East 144 166 11,100  Level Minneapolis Center
Wed 06:45:51 PM 46.2031 -90.1928 101° East 145 167 11,100  Level Minneapolis Center
Wed 06:46:53 PM 46.1958 -90.1369 101° East 143 165 11,100  Level Minneapolis Center
Wed 06:47:55 PM 46.1875 -90.0781 102° East 146 168 11,100  Level Minneapolis Center
Wed 06:48:57 PM 46.1797 -90.0222 101° East 145 167 11,100  Level Minneapolis Center
Wed 06:49:59 PM 46.1711 -89.9633 102° East 147 169 11,100  Level Minneapolis Center
Wed 06:51:01 PM 46.1619 -89.9044 103° East 149 171 11,100 -48 Level Minneapolis Center
Wed 06:52:03 PM 46.1519 -89.8369 102° East 147 169 11,000 -48 Descending Minneapolis Center
Wed 06:53:05 PM 46.1428 -89.7783 103° East 147 169 11,000 -192 Level Minneapolis Center
Wed 06:54:08 PM 46.1358 -89.7203 100° East 147 169 10,600 -387 Descending Minneapolis Center
Wed 06:55:09 PM 46.1258 -89.6564 103° East 162 186 10,200 -435 Descending Minneapolis Center
Wed 06:56:12 PM 46.1172 -89.5944 101° East 157 181 9,700 -480 Descending Minneapolis Center
Wed 06:57:14 PM 46.1083 -89.5336 102° East 156 180 9,200 -339 Descending Minneapolis Center
Wed 06:58:16 PM 46.0997 -89.4744 102° East 151 174 9,000 -97 Descending Minneapolis Center
Wed 06:59:18 PM 46.0900 -89.4072 102° East 143 165 9,000  Level Minneapolis Center
Wed 07:00:20 PM 46.0811 -89.3492 102° East 145 167 9,000  Level Minneapolis Center
Wed 07:01:22 PM 46.0728 -89.2897 101° East 145 167 9,000 -48 Level Minneapolis Center
Wed 07:02:24 PM 46.0639 -89.2319 102° East 147 169 8,900 -48 Descending Minneapolis Center
Wed 07:03:26 PM 46.0553 -89.1756 102° East 146 168 8,900  Level Minneapolis Center
Wed 07:04:28 PM 46.0469 -89.1186 102° East 145 167 8,900  Level Minneapolis Center
Wed 07:05:30 PM 46.0383 -89.0619 102° East 146 168 8,900  Level Minneapolis Center
Wed 07:06:32 PM 46.0297 -89.0042 102° East 148 170 8,900  Level Minneapolis Center
Wed 07:07:34 PM 46.0192 -88.9364 103° East 145 167 8,900 48 Level Minneapolis Center
Wed 07:08:36 PM 46.0114 -88.8800 101° East 144 166 9,000 48 Climbing Minneapolis Center
Wed 07:09:39 PM 46.0025 -88.8222 102° East 146 168 9,000  Level Minneapolis Center
Wed 07:10:41 PM 45.9933 -88.7664 103° East 145 167 9,000  Level Minneapolis Center
Wed 07:11:43 PM 45.9839 -88.7083 103° East 147 169 9,000  Level Minneapolis Center
Wed 07:12:45 PM 45.9747 -88.6497 103° East 149 171 9,000  Level Minneapolis Center
Wed 07:13:47 PM 45.9642 -88.5792 102° East 150 173 9,000  Level Minneapolis Center
Wed 07:14:49 PM 45.9550 -88.5208 103° East 151 174 9,000  Level Minneapolis Center
Wed 07:15:51 PM 45.9464 -88.4631 102° East 149 171 9,000  Level Minneapolis Center
Wed 07:16:53 PM 45.9383 -88.4056 101° East 148 170 9,000  Level Minneapolis Center
Wed 07:17:55 PM 45.9286 -88.3492 104° East 146 168 9,000 -48 Level Minneapolis Center
Wed 07:18:57 PM 45.9194 -88.2903 103° East 149 171 8,900 -435 Descending Minneapolis Center
Wed 07:19:59 PM 45.9086 -88.2161 102° East 154 177 8,100 -726 Descending Minneapolis Center
Wed 07:21:01 PM 45.8969 -88.1475 104° East 174 200 7,400 -677 Descending Minneapolis Center
Wed 07:22:03 PM 45.8847 -88.0789 104° East 175 201 6,700 -624 Descending Minneapolis Center
Wed 07:23:06 PM 45.8747 -88.0094 102° East 176 203 6,100 -528 Descending Minneapolis Center
Wed 07:24:08 PM 45.8628 -87.9397 104° East 176 203 5,600 -435 Descending Minneapolis Center
Wed 07:25:10 PM 45.8511 -87.8692 103° East 169 194 5,200 -387 Descending Minneapolis Center
Wed 07:26:12 PM 45.8411 -87.8042 102° East 165 190 4,800 -387 Descending Minneapolis Center
Wed 07:27:14 PM 45.8311 -87.7431 103° East 159 183 4,400 -387 Descending Minneapolis Center
Wed 07:28:16 PM 45.8214 -87.6825 103° East 156 180 4,000 -387 Descending Minneapolis Center
Wed 07:30:00 PM 45.7952 -87.5829 102° East  Level FlightAware Approximate
Wed 07:37:00 PM 45.7236 -87.1744 112° Southeast  Level FlightAware Approximate
Wed 07:38:00 PM 45.7167 -87.1156 90° East  Level FlightAware Approximate
Wed 07:39:00 PM 45.7167 -87.0833 90° East  Level FlightAware Approximate
Wed 07:40:00 PM 45.7227 -87.0937 90° East  Level Estimated
Wed 07:41:00 PM 45.7227 -87.0937 90° East  Level Estimated
Wed 07:42:00 PM 45.7227 -87.0937 90° East  Level Estimated
Wed 07:43:00 PM 45.7227 -87.0937 90° East  Level Estimated
Wed 07:44:00 PM 45.7227 -87.0937 90° East  Level Estimated

Login

Don't have an account? Register now (free) for customized features, flight alerts, and more!